Time;durP1;ratioP1;P1;durP2;ratioP2;P2;SDS_P1;SDS_P2;PMS_P1;PMS_P2;Temp;Humidity;BMP_temperature;BMP_pressure;BME280_temperature;BME280_humidity;BME280_pressure;Samples;Min_cycle;Max_cycle;Signal;HPM_P1;HPM_P2
2023/05/23 00:02:27;;;;;;;11.43;6.32;;;;;;;18.99;56.66;99837.44;10400368;28;20127;-87
2023/05/23 00:07:31;;;;;;;13.25;6.60;;;;;;;18.94;56.34;99837.00;10394718;28;20060;-87
2023/05/23 00:12:33;;;;;;;10.57;6.30;;;;;;;18.98;56.23;99839.22;10360836;28;20033;-87
2023/05/23 00:17:38;;;;;;;10.90;6.07;;;;;;;18.90;56.15;99838.28;10382100;28;20045;-87
2023/05/23 00:22:43;;;;;;;8.95;5.38;;;;;;;18.80;56.49;99838.34;10410922;28;20048;-87
2023/05/23 00:27:44;;;;;;;10.13;5.35;;;;;;;18.54;56.65;99850.56;10411369;28;20072;-87
2023/05/23 00:32:47;;;;;;;10.50;5.72;;;;;;;18.45;56.79;99852.25;10379701;28;20462;-87
2023/05/23 00:37:50;;;;;;;9.35;5.35;;;;;;;18.23;56.81;99852.59;10410389;28;20124;-87
2023/05/23 00:42:52;;;;;;;10.35;5.43;;;;;;;18.00;56.99;99855.63;10393495;28;20077;-87
2023/05/23 00:47:54;;;;;;;10.48;5.47;;;;;;;17.88;57.32;99857.59;10410571;28;20528;-87
2023/05/23 00:52:59;;;;;;;9.65;5.35;;;;;;;17.68;57.70;99850.63;10394582;28;20449;-88
2023/05/23 00:58:01;;;;;;;8.63;4.95;;;;;;;17.59;57.81;99856.75;10405266;28;20062;-87
2023/05/23 01:03:03;;;;;;;7.45;4.55;;;;;;;17.49;57.58;99864.69;10410315;28;20130;-87
2023/05/23 01:08:06;;;;;;;9.48;4.90;;;;;;;17.39;57.58;99877.03;10409766;28;20045;-87
2023/05/23 01:19:26;;;;;;;9.00;5.18;;;;;;;17.06;57.97;99881.78;10372526;28;20060;-87
2023/05/23 01:24:35;;;;;;;9.30;5.10;;;;;;;16.90;58.09;99874.34;10376416;28;20045;-87
2023/05/23 01:29:42;;;;;;;10.00;5.57;;;;;;;16.81;58.44;99880.44;10379359;28;20426;-87
2023/05/23 01:34:45;;;;;;;10.48;5.20;;;;;;;16.70;58.20;99875.22;10372629;28;20044;-87
2023/05/23 01:39:47;;;;;;;9.95;5.30;;;;;;;16.60;58.40;99882.28;10371118;28;20060;-87
2023/05/23 01:44:51;;;;;;;10.95;5.40;;;;;;;16.54;58.64;99880.16;10382866;28;20455;-87
2023/05/23 01:49:54;;;;;;;8.18;4.75;;;;;;;16.44;58.51;99884.53;10396680;28;20063;-87
2023/05/23 01:54:58;;;;;;;9.57;5.07;;;;;;;16.36;58.89;99882.53;10407569;28;20526;-88
2023/05/23 02:00:00;;;;;;;11.00;5.53;;;;;;;16.22;59.12;99896.84;10367913;28;20411;-87
2023/05/23 02:05:02;;;;;;;11.98;6.15;;;;;;;16.15;58.86;99886.94;10371324;28;20049;-87
2023/05/23 02:10:07;;;;;;;11.85;6.57;;;;;;;16.04;59.18;99884.38;10413240;28;20051;-88
2023/05/23 02:15:10;;;;;;;14.20;7.18;;;;;;;16.08;59.11;99893.72;10407553;28;20033;-87
2023/05/23 02:20:13;;;;;;;13.50;6.90;;;;;;;16.09;58.79;99890.09;10389332;28;20057;-87
2023/05/23 02:25:15;;;;;;;12.55;6.82;;;;;;;15.97;59.25;99889.31;10382139;28;20042;-88
2023/05/23 02:30:17;;;;;;;14.25;7.47;;;;;;;15.98;59.08;99901.53;10412896;28;20041;-87
2023/05/23 02:35:19;;;;;;;17.30;7.40;;;;;;;16.11;59.17;99906.66;10409976;28;20049;-87
2023/05/23 02:40:21;;;;;;;15.80;7.55;;;;;;;16.29;58.91;99920.09;10379792;28;20096;-88
2023/05/23 02:45:23;;;;;;;15.73;8.10;;;;;;;16.36;58.76;99923.91;10378000;28;20052;-87
2023/05/23 02:50:25;;;;;;;18.55;8.50;;;;;;;16.60;58.15;99927.16;10383412;28;20042;-88
2023/05/23 02:55:27;;;;;;;14.52;7.57;;;;;;;16.61;58.22;99939.41;10394854;28;20140;-87
2023/05/23 03:00:29;;;;;;;13.48;6.75;;;;;;;16.38;58.10;99940.47;10412323;28;20053;-87
2023/05/23 03:05:31;;;;;;;12.13;6.25;;;;;;;16.41;57.83;99942.81;10393333;28;20046;-87
2023/05/23 03:10:33;;;;;;;11.07;5.88;;;;;;;16.34;57.64;99934.59;10401223;28;20096;-87
2023/05/23 03:15:35;;;;;;;10.18;5.57;;;;;;;16.31;57.35;99952.47;10367523;28;20834;-88
2023/05/23 03:20:41;;;;;;;9.57;5.35;;;;;;;16.44;57.35;99948.75;10399008;28;20080;-86
2023/05/23 03:25:43;;;;;;;11.32;6.35;;;;;;;16.47;57.03;99952.94;10397630;28;20085;-87
2023/05/23 03:30:45;;;;;;;9.07;5.18;;;;;;;16.37;56.69;99951.97;10413176;28;20065;-86
2023/05/23 03:35:47;;;;;;;8.57;4.78;;;;;;;16.27;56.58;99954.53;10396919;28;20053;-87
2023/05/23 03:40:49;;;;;;;8.43;4.43;;;;;;;16.41;56.29;99948.09;10396726;28;20045;-87
2023/05/23 03:45:51;;;;;;;7.50;4.53;;;;;;;16.45;55.97;99954.84;10393469;28;20524;-88
2023/05/23 03:50:53;;;;;;;6.55;4.20;;;;;;;16.50;56.05;99952.66;10413169;28;20049;-87
2023/05/23 03:55:56;;;;;;;8.40;4.50;;;;;;;16.48;55.85;99951.97;10409985;28;20144;-88
2023/05/23 04:01:00;;;;;;;6.85;4.32;;;;;;;16.57;55.79;99953.84;10395719;28;20049;-87
2023/05/23 04:06:04;;;;;;;7.85;4.50;;;;;;;16.62;55.58;99967.47;10391366;28;20045;-88
2023/05/23 04:11:07;;;;;;;8.35;4.32;;;;;;;16.57;55.70;99964.41;10382421;28;20053;-87
2023/05/23 04:16:11;;;;;;;8.15;4.18;;;;;;;16.59;55.40;99970.38;10410669;28;20049;-87
2023/05/23 04:21:15;;;;;;;9.27;3.92;;;;;;;16.43;55.66;99964.66;10408427;28;20051;-88
2023/05/23 04:26:26;;;;;;;7.78;4.22;;;;;;;16.43;56.06;99973.44;10381750;28;20058;-87
2023/05/23 04:31:28;;;;;;;6.47;3.85;;;;;;;16.47;55.60;99979.34;10379044;28;20410;-87
2023/05/23 04:36:36;;;;;;;6.40;3.83;;;;;;;16.46;55.48;99989.06;10377254;28;20145;-87
2023/05/23 04:41:39;;;;;;;7.55;4.10;;;;;;;16.43;55.83;99994.56;10410894;28;20045;-87
2023/05/23 04:47:14;;;;;;;9.52;4.20;;;;;;;16.29;55.88;100001.91;10384422;28;20580;-88
2023/05/23 04:52:29;;;;;;;7.05;4.18;;;;;;;16.31;55.81;100014.03;10410100;28;20132;-87
2023/05/23 04:57:32;;;;;;;6.50;4.13;;;;;;;16.43;55.33;100009.53;10405944;28;20096;-87
2023/05/23 05:02:36;;;;;;;8.82;4.35;;;;;;;16.64;54.99;99994.59;10383501;28;20046;-87
2023/05/23 05:07:39;;;;;;;7.80;4.18;;;;;;;16.71;54.79;100004.50;10406826;28;20049;-87
2023/05/23 05:12:44;;;;;;;6.40;4.00;;;;;;;16.77;54.27;100000.53;10409016;28;20045;-88
2023/05/23 05:17:46;;;;;;;5.97;3.70;;;;;;;16.72;54.45;100005.34;10392681;28;20046;-87
2023/05/23 05:22:56;;;;;;;5.80;3.72;;;;;;;16.63;54.40;100008.78;10374866;28;20041;-87
2023/05/23 05:28:06;;;;;;;6.20;3.20;;;;;;;16.42;54.87;100013.16;10380243;28;20065;-87
2023/05/23 05:33:13;;;;;;;6.93;3.75;;;;;;;16.43;54.66;100014.81;10367805;28;20054;-87
2023/05/23 05:38:16;;;;;;;5.43;3.45;;;;;;;16.50;54.37;100031.88;10376992;28;20110;-86
2023/05/23 05:43:19;;;;;;;4.93;3.40;;;;;;;16.41;54.79;100035.22;10395379;28;20124;-86
2023/05/23 05:48:29;;;;;;;5.40;3.45;;;;;;;16.27;55.54;100035.50;10374173;28;20054;-85
2023/05/23 05:53:35;;;;;;;5.32;3.38;;;;;;;16.29;55.29;100044.97;10381184;28;20037;-86
2023/05/23 05:58:54;;;;;;;4.50;2.70;;;;;;;16.19;55.81;100042.25;10404228;28;20080;-86
2023/05/23 06:03:58;;;;;;;3.65;2.55;;;;;;;16.05;56.48;100045.19;10375545;28;20077;-86
2023/05/23 06:09:09;;;;;;;4.50;3.00;;;;;;;16.18;56.26;100045.03;10388303;28;20691;-85
2023/05/23 06:14:11;;;;;;;;;;;;;;;16.16;56.29;100042.50;10392332;28;20042;-85
2023/05/23 06:19:17;;;;;;;4.18;2.65;;;;;;;16.42;55.38;100047.47;10381785;28;20309;-86
2023/05/23 06:24:21;;;;;;;5.95;2.90;;;;;;;16.59;55.52;100047.78;10399651;28;20077;-86
2023/05/23 06:29:42;;;;;;;4.80;2.40;;;;;;;16.71;55.49;100051.22;10375134;28;20057;-84
2023/05/23 06:34:46;;;;;;;5.20;2.10;;;;;;;16.80;55.15;100053.94;10393655;28;20128;-87
2023/05/23 06:39:48;;;;;;;4.72;2.60;;;;;;;16.73;55.36;100057.22;10399525;28;20092;-86
2023/05/23 06:44:52;;;;;;;3.50;2.33;;;;;;;16.72;55.21;100060.81;10377310;28;20064;-87
2023/05/23 06:49:56;;;;;;;3.90;2.30;;;;;;;16.72;55.58;100058.16;10405180;28;20148;-87
2023/05/23 06:55:00;;;;;;;3.92;2.65;;;;;;;16.62;55.50;100055.47;10387152;28;20079;-84
2023/05/23 07:00:04;;;;;;;4.90;2.88;;;;;;;16.64;55.49;100057.97;10381362;28;20057;-85
2023/05/23 07:05:16;;;;;;;4.40;2.90;;;;;;;16.60;55.83;100067.94;10399049;28;20041;-85
2023/05/23 07:10:25;;;;;;;6.43;3.05;;;;;;;16.67;55.73;100069.09;10395110;28;20056;-85
2023/05/23 07:15:32;;;;;;;4.18;2.80;;;;;;;17.05;55.16;100063.28;10390762;28;20042;-85
2023/05/23 07:20:53;;;;;;;4.32;2.83;;;;;;;17.50;54.09;100062.03;10400094;28;20052;-86
2023/05/23 07:25:55;;;;;;;5.00;2.90;;;;;;;17.79;53.60;100062.97;10412072;28;20053;-84
2023/05/23 07:31:30;;;;;;;5.88;2.90;;;;;;;18.23;53.34;100066.19;10410956;28;20054;-85
2023/05/23 07:36:36;;;;;;;6.30;3.00;;;;;;;18.50;52.28;100064.53;10403292;28;20053;-85
2023/05/23 07:41:41;;;;;;;4.28;2.45;;;;;;;18.74;51.87;100050.03;10412418;28;20042;-85
2023/05/23 07:46:43;;;;;;;3.88;2.40;;;;;;;19.15;51.17;100057.69;10394441;28;20049;-85
2023/05/23 07:51:45;;;;;;;3.88;2.75;;;;;;;19.28;50.49;100067.00;10397075;28;20564;-86
2023/05/23 07:56:48;;;;;;;3.88;2.30;;;;;;;20.94;48.88;100053.34;10410342;28;20058;-84
2023/05/23 08:01:51;;;;;;;3.78;2.17;;;;;;;22.28;46.34;100051.72;10401134;28;20498;-85
2023/05/23 08:06:56;;;;;;;3.60;2.25;;;;;;;21.73;46.45;100058.50;10391778;28;20050;-85
2023/05/23 08:12:26;;;;;;;;;;;;;;;20.21;46.83;100057.09;10389781;28;20057;-84
2023/05/23 08:17:39;;;;;;;5.15;2.92;;;;;;;19.62;48.52;100074.44;10401622;28;20017;-84
2023/05/23 08:22:42;;;;;;;5.25;3.03;;;;;;;19.01;49.55;100088.09;10370412;28;20053;-84
2023/05/23 08:27:44;;;;;;;4.53;3.13;;;;;;;18.73;49.90;100104.84;10375263;28;20494;-84
2023/05/23 08:33:05;;;;;;;5.28;2.95;;;;;;;18.94;49.91;100108.19;10411334;28;20568;-84
2023/05/23 08:38:10;;;;;;;5.82;3.38;;;;;;;19.16;49.47;100099.97;10376872;28;20068;-84
2023/05/23 08:43:19;;;;;;;5.68;3.75;;;;;;;19.38;49.29;100096.13;10358429;28;20040;-84
2023/05/23 08:48:22;;;;;;;7.28;4.07;;;;;;;19.83;48.79;100099.78;10409875;28;20045;-84
2023/05/23 08:53:26;;;;;;;6.75;4.28;;;;;;;20.15;47.81;100088.75;10404053;28;20088;-83
2023/05/23 08:58:37;;;;;;;7.40;3.78;;;;;;;21.01;47.33;100096.06;10394616;28;20052;-84
2023/05/23 09:03:43;;;;;;;5.97;3.72;;;;;;;21.21;46.31;100086.09;10408565;28;20037;-84
2023/05/23 09:08:53;;;;;;;5.57;3.60;;;;;;;20.06;47.83;100103.75;10409397;28;20411;-84
2023/05/23 09:13:58;;;;;;;5.38;3.17;;;;;;;19.42;48.54;100116.94;10408859;28;20050;-83
2023/05/23 09:19:10;;;;;;;4.97;3.30;;;;;;;18.84;49.60;100125.91;10390401;28;20368;-84
2023/05/23 09:24:12;;;;;;;5.90;3.58;;;;;;;18.24;50.87;100128.75;10378473;28;20475;-84
2023/05/23 09:29:20;;;;;;;5.93;3.50;;;;;;;18.79;50.29;100122.81;10367934;28;20065;-84
2023/05/23 09:34:22;;;;;;;7.13;3.78;;;;;;;19.77;49.00;100115.44;10375243;28;20488;-84
2023/05/23 09:39:24;;;;;;;6.43;3.67;;;;;;;20.31;47.90;100127.94;10365899;28;20073;-84
2023/05/23 09:44:26;;;;;;;6.57;4.13;;;;;;;19.67;48.21;100126.09;10372754;28;20176;-83
2023/05/23 09:49:28;;;;;;;6.45;3.60;;;;;;;19.24;49.43;100134.56;10401910;28;20144;-84
2023/05/23 09:54:30;;;;;;;5.30;3.33;;;;;;;19.70;48.71;100131.13;10396397;28;20211;-84
2023/05/23 09:59:37;;;;;;;5.00;3.08;;;;;;;20.49;47.15;100126.97;10350501;28;20145;-84
2023/05/23 10:04:40;;;;;;;5.50;3.55;;;;;;;19.98;47.65;100130.19;10375164;28;20129;-84
2023/05/23 10:09:54;;;;;;;5.80;3.40;;;;;;;19.05;49.14;100131.94;10399966;28;20383;-84
2023/05/23 10:15:04;;;;;;;4.82;3.20;;;;;;;18.98;49.35;100132.59;10408517;28;20038;-84
2023/05/23 10:20:11;;;;;;;4.97;3.03;;;;;;;19.10;49.34;100139.47;10380332;28;20046;-84
2023/05/23 10:25:14;;;;;;;5.30;3.17;;;;;;;18.58;49.74;100146.78;10367519;28;20377;-84
2023/05/23 10:30:16;;;;;;;5.50;2.92;;;;;;;18.19;50.52;100155.63;10397172;28;20116;-84
2023/05/23 10:35:40;;;;;;;4.63;3.03;;;;;;;18.00;50.82;100168.75;10409142;28;20117;-84
2023/05/23 10:40:52;;;;;;;4.82;2.70;;;;;;;17.78;50.92;100176.88;10407900;28;20391;-84
2023/05/23 10:45:54;;;;;;;4.47;2.33;;;;;;;18.12;50.26;100177.44;10408290;28;20037;-84
2023/05/23 10:51:07;;;;;;;4.18;2.40;;;;;;;19.38;47.78;100163.28;10406789;28;20120;-83
2023/05/23 10:56:18;;;;;;;4.70;2.20;;;;;;;20.37;46.67;100160.06;10405597;28;20060;-83
2023/05/23 11:01:20;;;;;;;3.75;2.10;;;;;;;19.35;47.63;100168.06;10407697;28;20072;-83
2023/05/23 11:06:43;;;;;;;4.60;2.35;;;;;;;19.18;47.06;100171.41;10397858;28;20041;-83
2023/05/23 11:12:04;;;;;;;4.20;2.22;;;;;;;19.02;46.96;100171.97;10402416;28;20049;-83
2023/05/23 11:17:12;;;;;;;6.15;2.30;;;;;;;19.05;46.79;100184.13;10400111;28;20045;-83
2023/05/23 11:22:14;;;;;;;3.38;2.20;;;;;;;19.66;46.60;100176.66;10406430;28;20042;-83
2023/05/23 11:27:39;;;;;;;3.05;1.88;;;;;;;20.41;43.48;100163.25;10404847;28;20087;-84
2023/05/23 11:32:52;;;;;;;3.65;2.20;;;;;;;20.67;43.49;100161.56;10402606;28;20052;-83
2023/05/23 11:37:56;;;;;;;4.82;1.95;;;;;;;20.38;44.55;100176.84;10409059;28;20046;-84
2023/05/23 11:42:59;;;;;;;4.07;2.28;;;;;;;19.47;46.18;100188.13;10388801;28;20034;-83
2023/05/23 11:48:09;;;;;;;4.07;2.40;;;;;;;18.68;47.31;100197.16;10394953;28;20060;-84
2023/05/23 11:53:12;;;;;;;4.65;2.45;;;;;;;18.37;47.86;100204.31;10412338;28;20049;-83
2023/05/23 11:58:14;;;;;;;4.80;2.58;;;;;;;18.53;47.68;100198.50;10412392;28;20513;-83
2023/05/23 12:03:16;;;;;;;4.40;2.53;;;;;;;19.20;46.75;100195.97;10413350;28;20056;-83
2023/05/23 12:08:18;;;;;;;3.97;2.38;;;;;;;19.63;45.84;100191.03;10413039;28;20045;-83
2023/05/23 12:13:24;;;;;;;4.45;2.25;;;;;;;19.86;45.41;100188.91;10394825;28;20387;-84
2023/05/23 12:18:31;;;;;;;4.63;2.40;;;;;;;20.06;44.92;100191.38;10410698;28;20086;-84
2023/05/23 12:23:34;;;;;;;5.50;2.50;;;;;;;19.87;45.30;100190.56;10412863;28;20116;-83
2023/05/23 12:28:42;;;;;;;4.47;2.35;;;;;;;19.78;44.99;100194.09;10409723;28;20053;-84
2023/05/23 12:33:46;;;;;;;5.57;2.85;;;;;;;20.10;44.81;100192.75;10394087;28;20037;-84
2023/05/23 12:38:50;;;;;;;6.38;3.17;;;;;;;20.20;44.88;100201.50;10391207;28;20042;-83
2023/05/23 12:43:54;;;;;;;7.63;3.22;;;;;;;19.53;45.19;100213.25;10353269;28;20057;-84
2023/05/23 12:48:56;;;;;;;5.22;3.47;;;;;;;18.82;46.37;100209.16;10397227;28;20391;-84
2023/05/23 12:53:58;;;;;;;7.75;3.60;;;;;;;18.21;47.50;100227.81;10409087;28;20372;-83
2023/05/23 12:59:02;;;;;;;4.93;3.05;;;;;;;17.90;48.20;100228.75;10401351;28;20038;-84
2023/05/23 13:04:04;;;;;;;4.75;2.97;;;;;;;17.79;48.42;100220.88;10389318;28;20052;-83
2023/05/23 13:09:08;;;;;;;5.72;3.10;;;;;;;18.03;48.10;100232.03;10399669;28;20095;-83
2023/05/23 13:14:12;;;;;;;9.57;4.72;;;;;;;18.20;48.05;100243.84;10365175;28;20041;-83
2023/05/23 13:19:14;;;;;;;10.25;4.80;;;;;;;18.17;48.08;100246.72;10393361;28;20388;-83
2023/05/23 13:24:16;;;;;;;8.23;4.35;;;;;;;18.29;48.04;100243.03;10399943;28;20042;-83
2023/05/23 13:29:18;;;;;;;6.55;3.75;;;;;;;18.68;47.61;100247.50;10398022;28;20061;-83
2023/05/23 13:34:20;;;;;;;5.45;3.22;;;;;;;19.13;46.60;100226.69;10387519;28;20042;-83
2023/05/23 13:39:22;;;;;;;8.38;3.67;;;;;;;19.79;45.52;100227.59;10397494;28;21291;-83
2023/05/23 13:44:24;;;;;;;5.05;2.63;;;;;;;19.53;45.25;100245.94;10400561;28;20735;-83
2023/05/23 13:49:26;;;;;;;5.82;2.72;;;;;;;18.60;46.20;100247.34;10391772;28;20061;-84
2023/05/23 13:54:28;;;;;;;5.90;2.70;;;;;;;18.41;46.45;100244.63;10397536;28;20037;-84
2023/05/23 13:59:30;;;;;;;5.68;2.58;;;;;;;18.74;45.67;100246.97;10406700;28;20566;-84
2023/05/23 14:04:32;;;;;;;4.18;2.28;;;;;;;19.17;43.27;100233.38;10406327;28;20545;-84
2023/05/23 14:09:34;;;;;;;3.55;2.00;;;;;;;19.50;43.46;100234.78;10409660;28;20050;-84
2023/05/23 14:14:36;;;;;;;5.25;2.30;;;;;;;19.82;42.53;100225.53;10398203;28;20044;-83
2023/05/23 14:19:38;;;;;;;3.75;2.17;;;;;;;19.81;42.14;100233.59;10382223;28;20499;-83
2023/05/23 14:24:40;;;;;;;4.05;2.25;;;;;;;19.48;42.05;100242.03;10406256;28;20045;-82
2023/05/23 14:29:45;;;;;;;4.82;2.40;;;;;;;18.93;43.54;100235.56;10406338;28;20095;-80
2023/05/23 14:34:47;;;;;;;4.70;2.45;;;;;;;18.42;44.61;100251.59;10382067;28;20050;-80
2023/05/23 14:39:49;;;;;;;3.70;2.05;;;;;;;18.55;44.46;100252.19;10365357;28;20045;-80
2023/05/23 14:44:52;;;;;;;4.68;2.28;;;;;;;18.78;43.20;100243.06;10395166;28;20045;-81
2023/05/23 14:49:54;;;;;;;4.45;2.20;;;;;;;19.04;42.92;100244.25;10406187;28;20061;-80
2023/05/23 14:54:56;;;;;;;4.63;1.85;;;;;;;19.55;42.71;100238.66;10402373;28;20046;-80
2023/05/23 14:59:58;;;;;;;4.10;1.90;;;;;;;19.70;42.48;100236.41;10403173;28;20423;-80
2023/05/23 15:05:00;;;;;;;3.72;2.25;;;;;;;19.68;42.13;100238.38;10403697;28;20045;-80
2023/05/23 15:10:05;;;;;;;4.28;2.13;;;;;;;19.48;42.49;100243.69;10367358;28;20053;-81
2023/05/23 15:15:08;;;;;;;4.38;1.92;;;;;;;19.65;42.58;100244.81;10408378;28;20044;-81
2023/05/23 15:20:10;;;;;;;4.50;2.03;;;;;;;19.56;42.02;100240.34;10399195;28;20129;-80
2023/05/23 15:25:12;;;;;;;3.88;2.03;;;;;;;19.48;41.78;100242.88;10389339;28;20495;-80
2023/05/23 15:30:15;;;;;;;3.05;1.92;;;;;;;19.67;41.15;100236.69;10398136;28;20041;-81
2023/05/23 15:35:17;;;;;;;4.70;2.22;;;;;;;19.17;41.65;100254.59;10391732;28;20041;-80
2023/05/23 15:40:21;;;;;;;3.30;2.03;;;;;;;19.02;41.99;100245.34;10378620;28;20129;-80
2023/05/23 15:45:23;;;;;;;4.80;2.50;;;;;;;19.19;41.85;100247.34;10397090;28;20049;-80
2023/05/23 15:50:26;;;;;;;4.47;2.13;;;;;;;19.38;41.65;100256.13;10403654;28;20863;-80
2023/05/23 15:55:30;;;;;;;4.32;2.10;;;;;;;19.43;41.07;100251.25;10402290;28;20048;-80
2023/05/23 16:00:32;;;;;;;4.10;2.38;;;;;;;19.28;40.30;100257.94;10377772;28;20033;-80
2023/05/23 16:05:35;;;;;;;4.32;1.90;;;;;;;18.65;39.78;100266.31;10394894;28;20065;-80
2023/05/23 16:10:39;;;;;;;3.42;1.75;;;;;;;18.36;39.71;100254.78;10389969;28;20046;-81
2023/05/23 16:15:42;;;;;;;2.85;1.80;;;;;;;18.07;40.30;100257.25;10396605;28;20605;-81
2023/05/23 16:20:44;;;;;;;2.42;1.67;;;;;;;17.73;40.29;100259.25;10393821;28;20137;-81
2023/05/23 16:25:47;;;;;;;3.20;1.77;;;;;;;17.64;40.19;100252.13;10387037;28;20081;-80
2023/05/23 16:30:50;;;;;;;3.45;1.70;;;;;;;17.55;40.34;100250.22;10388561;28;20044;-81
2023/05/23 16:35:54;;;;;;;3.97;1.80;;;;;;;17.54;40.44;100251.22;10386103;28;20042;-81
2023/05/23 16:40:56;;;;;;;3.38;1.73;;;;;;;17.63;40.98;100258.34;10394381;28;20052;-81
2023/05/23 16:45:58;;;;;;;3.08;1.83;;;;;;;17.39;40.70;100257.75;10365261;28;20038;-81
2023/05/23 16:51:01;;;;;;;3.45;1.77;;;;;;;17.43;40.68;100259.19;10367646;28;20535;-81
2023/05/23 16:56:04;;;;;;;3.15;1.80;;;;;;;17.67;40.62;100246.56;10374330;28;21016;-80
2023/05/23 17:01:07;;;;;;;3.65;1.88;;;;;;;17.69;40.85;100247.25;10395047;28;20040;-80
2023/05/23 17:06:09;;;;;;;4.00;1.92;;;;;;;17.42;41.32;100244.31;10389683;28;20045;-81
2023/05/23 17:11:12;;;;;;;6.18;1.85;;;;;;;17.34;40.98;100245.91;10405870;28;20411;-80
2023/05/23 17:16:17;;;;;;;3.25;1.70;;;;;;;17.22;41.13;100231.84;10380691;28;20128;-81
2023/05/23 17:21:22;;;;;;;6.18;2.22;;;;;;;17.39;41.34;100243.69;10389079;28;20049;-81
2023/05/23 17:26:26;;;;;;;4.80;2.35;;;;;;;17.77;40.77;100239.53;10390675;28;20056;-81
2023/05/23 17:31:28;;;;;;;4.63;1.70;;;;;;;17.63;40.73;100239.84;10365981;28;20475;-80
2023/05/23 17:36:32;;;;;;;3.53;1.70;;;;;;;17.55;40.98;100244.94;10377251;28;20481;-80
2023/05/23 17:41:36;;;;;;;3.40;1.67;;;;;;;17.50;40.72;100249.78;10360632;28;20049;-81
2023/05/23 17:46:40;;;;;;;3.72;1.70;;;;;;;17.31;40.96;100246.94;10380772;28;20075;-80
2023/05/23 17:51:42;;;;;;;3.00;1.67;;;;;;;17.02;40.60;100254.63;10379176;28;20041;-80
2023/05/23 17:56:44;;;;;;;2.33;1.58;;;;;;;16.98;41.14;100254.97;10381522;28;20065;-80
2023/05/23 18:01:46;;;;;;;4.93;1.80;;;;;;;16.80;40.20;100262.59;10395004;28;20045;-80
2023/05/23 18:06:48;;;;;;;4.07;1.67;;;;;;;16.74;41.02;100257.81;10382910;28;20044;-80
2023/05/23 18:11:52;;;;;;;6.20;1.60;;;;;;;16.72;41.00;100266.81;10384113;28;20077;-80
2023/05/23 18:16:54;;;;;;;4.22;1.50;;;;;;;16.62;41.21;100265.88;10374783;28;20040;-80
2023/05/23 18:21:56;;;;;;;4.47;1.60;;;;;;;16.63;41.29;100264.91;10381356;28;20052;-80
2023/05/23 18:27:00;;;;;;;2.85;1.73;;;;;;;16.64;41.25;100271.88;10381182;28;20046;-80
2023/05/23 18:32:03;;;;;;;3.72;1.60;;;;;;;16.52;41.42;100278.13;10391849;28;20531;-80
2023/05/23 18:37:05;;;;;;;4.03;1.50;;;;;;;16.47;41.71;100273.19;10401722;28;20056;-80
2023/05/23 18:42:07;;;;;;;4.60;2.00;;;;;;;16.28;42.15;100280.00;10412429;28;20045;-80
2023/05/23 18:47:09;;;;;;;3.80;1.67;;;;;;;16.23;41.96;100281.19;10403072;28;20045;-80
2023/05/23 18:52:12;;;;;;;4.93;1.50;;;;;;;15.96;42.24;100285.94;10383305;28;20495;-80
2023/05/23 18:57:16;;;;;;;2.70;1.75;;;;;;;15.88;42.64;100285.69;10379213;28;20038;-80
2023/05/23 19:02:19;;;;;;;2.85;1.50;;;;;;;15.62;42.76;100299.16;10409417;28;20076;-80
2023/05/23 19:07:22;;;;;;;3.40;1.80;;;;;;;15.46;43.30;100306.50;10369620;28;20038;-80
2023/05/23 19:12:25;;;;;;;3.75;1.70;;;;;;;15.24;43.87;100301.97;10379373;28;20060;-80
2023/05/23 19:17:27;;;;;;;3.20;1.60;;;;;;;15.07;44.08;100310.25;10379423;28;20068;-80
2023/05/23 19:22:30;;;;;;;3.60;1.52;;;;;;;14.97;44.10;100320.63;10395273;28;20092;-80
2023/05/23 19:27:51;;;;;;;2.53;1.50;;;;;;;14.67;44.66;100321.94;10383258;28;20147;-80
2023/05/23 19:32:53;;;;;;;4.53;1.70;;;;;;;14.50;44.99;100331.88;10404105;28;20461;-80
2023/05/23 19:37:56;;;;;;;3.22;1.65;;;;;;;14.48;45.24;100343.41;10393704;28;20120;-80
2023/05/23 19:42:58;;;;;;;2.63;1.60;;;;;;;14.27;45.27;100348.34;10406396;28;20522;-82
2023/05/23 19:48:01;;;;;;;3.67;1.63;;;;;;;14.15;45.75;100354.44;10388381;28;20417;-82
2023/05/23 19:53:04;;;;;;;3.08;1.50;;;;;;;14.01;46.41;100359.81;10406093;28;20052;-82
2023/05/23 19:58:06;;;;;;;3.20;1.60;;;;;;;13.85;46.53;100361.78;10396252;28;20528;-82
2023/05/23 20:03:08;;;;;;;5.18;1.75;;;;;;;13.70;46.86;100371.50;10395095;28;20041;-82
2023/05/23 20:08:10;;;;;;;2.47;1.50;;;;;;;13.67;47.10;100376.13;10387609;28;20057;-82
2023/05/23 20:13:12;;;;;;;5.68;1.60;;;;;;;13.67;47.34;100384.00;10406530;28;20053;-81
2023/05/23 20:18:14;;;;;;;3.55;1.50;;;;;;;13.54;47.39;100386.59;10399067;28;20047;-82
2023/05/23 20:23:17;;;;;;;5.18;1.52;;;;;;;13.43;47.74;100402.19;10398858;28;20059;-82
2023/05/23 20:28:18;;;;;;;3.60;1.60;;;;;;;13.35;48.07;100396.56;10383885;28;20400;-82
2023/05/23 20:33:20;;;;;;;2.95;1.60;;;;;;;13.22;48.39;100400.06;10386035;28;20049;-82
2023/05/23 20:38:23;;;;;;;5.20;1.83;;;;;;;13.11;48.49;100407.78;10388568;28;20125;-82
2023/05/23 20:43:25;;;;;;;3.67;1.60;;;;;;;13.06;48.93;100396.72;10400154;28;20048;-82
2023/05/23 20:48:27;;;;;;;6.60;1.80;;;;;;;12.94;48.89;100406.22;10391043;28;20038;-82
2023/05/23 20:53:30;;;;;;;3.58;1.83;;;;;;;12.75;49.14;100410.88;10396319;28;20467;-82
2023/05/23 20:58:32;;;;;;;2.13;1.40;;;;;;;12.60;49.32;100423.16;10407808;28;20120;-82
2023/05/23 21:03:34;;;;;;;4.90;1.70;;;;;;;12.61;49.74;100424.00;10407938;28;20042;-82
2023/05/23 21:08:36;;;;;;;4.07;1.77;;;;;;;12.52;49.57;100422.78;10406940;28;20053;-82
2023/05/23 21:13:38;;;;;;;3.33;1.60;;;;;;;12.46;49.76;100428.38;10407101;28;20136;-82
2023/05/23 21:18:40;;;;;;;4.90;1.50;;;;;;;12.12;49.91;100432.13;10408520;28;20233;-82
2023/05/23 21:23:42;;;;;;;4.80;1.77;;;;;;;11.97;50.24;100438.25;10378732;28;20123;-82
2023/05/23 21:28:44;;;;;;;3.58;1.80;;;;;;;11.80;50.45;100440.16;10399450;28;20045;-82
2023/05/23 21:33:46;;;;;;;5.75;1.52;;;;;;;11.79;50.95;100444.53;10405479;28;20040;-82
2023/05/23 21:38:48;;;;;;;4.85;2.13;;;;;;;11.88;51.13;100444.03;10369306;28;20042;-82
2023/05/23 21:43:51;;;;;;;3.90;1.65;;;;;;;11.81;51.44;100447.91;10376067;28;20076;-81
2023/05/23 21:48:53;;;;;;;2.53;1.45;;;;;;;11.82;51.73;100449.63;10391135;28;20048;-81
2023/05/23 21:53:54;;;;;;;2.50;1.55;;;;;;;11.78;51.62;100462.97;10381627;28;20124;-81
2023/05/23 21:58:56;;;;;;;5.55;1.80;;;;;;;11.75;52.06;100457.91;10401994;28;20533;-81
2023/05/23 22:03:59;;;;;;;2.83;1.50;;;;;;;11.76;51.49;100455.22;10389235;28;20392;-81
2023/05/23 22:09:02;;;;;;;5.05;1.58;;;;;;;11.61;51.56;100463.91;10388561;28;20050;-81
2023/05/23 22:14:04;;;;;;;3.33;1.50;;;;;;;11.63;51.58;100469.06;10403047;28;20530;-81
2023/05/23 22:19:08;;;;;;;1.65;1.30;;;;;;;11.58;51.70;100471.94;10376905;28;20053;-81
2023/05/23 22:24:10;;;;;;;3.22;1.60;;;;;;;11.48;52.19;100459.44;10398007;28;20152;-81
2023/05/23 22:29:43;;;;;;;2.90;1.42;;;;;;;11.47;52.26;100455.13;10408202;28;20057;-81
2023/05/23 22:34:45;;;;;;;3.83;1.65;;;;;;;11.43;52.17;100457.06;10385545;28;20052;-81
2023/05/23 22:39:47;;;;;;;3.05;1.63;;;;;;;11.32;52.43;100466.47;10406694;28;20521;-82
2023/05/23 22:44:49;;;;;;;2.30;1.50;;;;;;;11.19;52.59;100468.88;10406468;28;20052;-82
2023/05/23 22:49:55;;;;;;;3.45;1.40;;;;;;;11.07;52.61;100472.16;10396534;28;20634;-81
2023/05/23 22:54:57;;;;;;;3.17;1.60;;;;;;;10.96;52.59;100471.84;10366254;28;20440;-82
2023/05/23 22:59:59;;;;;;;2.80;1.40;;;;;;;10.95;52.63;100476.22;10376814;28;20049;-82
2023/05/23 23:05:02;;;;;;;3.80;1.60;;;;;;;10.82;53.10;100474.34;10400559;28;20488;-82
2023/05/23 23:10:06;;;;;;;4.30;1.60;;;;;;;10.66;53.70;100474.28;10402779;28;20086;-82
2023/05/23 23:15:08;;;;;;;2.97;1.65;;;;;;;10.54;54.03;100469.69;10406272;28;20071;-82
2023/05/23 23:20:11;;;;;;;3.83;1.63;;;;;;;10.38;54.53;100468.75;10398370;28;20041;-82
2023/05/23 23:25:14;;;;;;;3.47;1.50;;;;;;;10.31;54.77;100473.47;10393746;28;20038;-82
2023/05/23 23:30:16;;;;;;;4.13;1.30;;;;;;;10.36;54.25;100475.81;10413588;28;20414;-82